sensor_id;sensor_type;location;lat;lon;timestamp;temperature;humidity
23160;DHT22;11748;50.844;4.396;2023-04-15T00:00:38;12.20;99.90
23160;DHT22;11748;50.844;4.396;2023-04-15T00:03:04;12.30;99.90
23160;DHT22;11748;50.844;4.396;2023-04-15T00:05:30;12.40;99.90
23160;DHT22;11748;50.844;4.396;2023-04-15T00:07:56;12.50;99.90
23160;DHT22;11748;50.844;4.396;2023-04-15T00:10:24;12.60;99.90
23160;DHT22;11748;50.844;4.396;2023-04-15T00:12:50;12.60;99.90
23160;DHT22;11748;50.844;4.396;2023-04-15T00:15:16;12.60;99.90
23160;DHT22;11748;50.844;4.396;2023-04-15T00:17:42;12.50;99.90
23160;DHT22;11748;50.844;4.396;2023-04-15T00:20:08;12.40;99.90
23160;DHT22;11748;50.844;4.396;2023-04-15T00:22:34;12.40;99.90
23160;DHT22;11748;50.844;4.396;2023-04-15T00:25:01;12.40;99.90
23160;DHT22;11748;50.844;4.396;2023-04-15T00:27:27;12.20;99.90
23160;DHT22;11748;50.844;4.396;2023-04-15T00:29:54;12.20;99.90
23160;DHT22;11748;50.844;4.396;2023-04-15T00:32:19;12.20;99.90
23160;DHT22;11748;50.844;4.396;2023-04-15T00:34:45;12.10;99.90
23160;DHT22;11748;50.844;4.396;2023-04-15T00:37:11;12.20;99.90
23160;DHT22;11748;50.844;4.396;2023-04-15T00:39:37;12.00;99.90
23160;DHT22;11748;50.844;4.396;2023-04-15T00:42:06;12.00;99.90
23160;DHT22;11748;50.844;4.396;2023-04-15T00:44:32;11.90;99.90
23160;DHT22;11748;50.844;4.396;2023-04-15T00:47:00;11.90;99.90
23160;DHT22;11748;50.844;4.396;2023-04-15T00:49:29;12.00;99.90
23160;DHT22;11748;50.844;4.396;2023-04-15T00:51:56;12.00;99.90
23160;DHT22;11748;50.844;4.396;2023-04-15T00:54:22;12.10;99.90
23160;DHT22;11748;50.844;4.396;2023-04-15T00:56:48;12.00;99.90
23160;DHT22;11748;50.844;4.396;2023-04-15T00:59:14;11.90;99.90
23160;DHT22;11748;50.844;4.396;2023-04-15T01:01:41;11.90;99.90
23160;DHT22;11748;50.844;4.396;2023-04-15T01:04:07;11.90;99.90
23160;DHT22;11748;50.844;4.396;2023-04-15T01:06:35;11.90;99.90
23160;DHT22;11748;50.844;4.396;2023-04-15T01:09:01;11.80;99.90
23160;DHT22;11748;50.844;4.396;2023-04-15T01:11:27;11.90;99.90
23160;DHT22;11748;50.844;4.396;2023-04-15T01:13:55;12.00;99.90
23160;DHT22;11748;50.844;4.396;2023-04-15T01:16:22;12.10;99.90
23160;DHT22;11748;50.844;4.396;2023-04-15T01:18:48;12.20;99.90
23160;DHT22;11748;50.844;4.396;2023-04-15T01:21:13;12.20;99.90
23160;DHT22;11748;50.844;4.396;2023-04-15T01:23:40;12.10;99.90
23160;DHT22;11748;50.844;4.396;2023-04-15T01:26:06;12.10;99.90
23160;DHT22;11748;50.844;4.396;2023-04-15T01:28:36;12.10;99.90
23160;DHT22;11748;50.844;4.396;2023-04-15T01:31:20;12.20;99.90
23160;DHT22;11748;50.844;4.396;2023-04-15T01:33:46;12.20;99.90
23160;DHT22;11748;50.844;4.396;2023-04-15T01:36:12;12.10;99.90
23160;DHT22;11748;50.844;4.396;2023-04-15T01:38:38;12.00;99.90
23160;DHT22;11748;50.844;4.396;2023-04-15T01:41:03;12.00;99.90
23160;DHT22;11748;50.844;4.396;2023-04-15T01:43:31;12.00;99.90
23160;DHT22;11748;50.844;4.396;2023-04-15T01:45:57;12.00;99.90
23160;DHT22;11748;50.844;4.396;2023-04-15T01:48:23;12.10;99.90
23160;DHT22;11748;50.844;4.396;2023-04-15T01:50:48;12.10;99.90
23160;DHT22;11748;50.844;4.396;2023-04-15T01:53:15;12.00;99.90
23160;DHT22;11748;50.844;4.396;2023-04-15T01:55:41;11.90;99.90
23160;DHT22;11748;50.844;4.396;2023-04-15T01:58:07;11.80;99.90
23160;DHT22;11748;50.844;4.396;2023-04-15T02:00:32;11.70;99.90
23160;DHT22;11748;50.844;4.396;2023-04-15T02:02:59;11.80;99.90
23160;DHT22;11748;50.844;4.396;2023-04-15T02:05:25;11.80;99.90
23160;DHT22;11748;50.844;4.396;2023-04-15T02:07:51;11.80;99.90
23160;DHT22;11748;50.844;4.396;2023-04-15T02:10:17;11.70;99.90
23160;DHT22;11748;50.844;4.396;2023-04-15T02:12:42;11.80;99.90
23160;DHT22;11748;50.844;4.396;2023-04-15T02:15:09;11.90;99.90
23160;DHT22;11748;50.844;4.396;2023-04-15T02:17:35;12.00;99.90
23160;DHT22;11748;50.844;4.396;2023-04-15T02:20:03;12.10;99.90
23160;DHT22;11748;50.844;4.396;2023-04-15T02:22:33;12.10;99.90
23160;DHT22;11748;50.844;4.396;2023-04-15T02:24:59;12.00;99.90
23160;DHT22;11748;50.844;4.396;2023-04-15T02:27:25;11.90;99.90
23160;DHT22;11748;50.844;4.396;2023-04-15T02:29:50;11.80;99.90
23160;DHT22;11748;50.844;4.396;2023-04-15T02:32:16;11.90;99.90
23160;DHT22;11748;50.844;4.396;2023-04-15T02:34:43;11.90;99.90
23160;DHT22;11748;50.844;4.396;2023-04-15T02:37:10;11.80;99.90
23160;DHT22;11748;50.844;4.396;2023-04-15T02:39:36;11.90;99.90
23160;DHT22;11748;50.844;4.396;2023-04-15T02:42:02;11.90;99.90
23160;DHT22;11748;50.844;4.396;2023-04-15T02:44:27;12.00;99.90
23160;DHT22;11748;50.844;4.396;2023-04-15T02:46:53;11.90;99.90
23160;DHT22;11748;50.844;4.396;2023-04-15T02:49:20;11.90;99.90
23160;DHT22;11748;50.844;4.396;2023-04-15T02:51:46;11.80;99.90
23160;DHT22;11748;50.844;4.396;2023-04-15T02:54:19;11.80;99.90
23160;DHT22;11748;50.844;4.396;2023-04-15T02:56:45;11.80;99.90
23160;DHT22;11748;50.844;4.396;2023-04-15T02:59:12;11.80;99.90
23160;DHT22;11748;50.844;4.396;2023-04-15T03:01:38;11.80;99.90
23160;DHT22;11748;50.844;4.396;2023-04-15T03:04:03;11.70;99.90
23160;DHT22;11748;50.844;4.396;2023-04-15T03:06:30;11.70;99.90
23160;DHT22;11748;50.844;4.396;2023-04-15T03:08:56;11.80;99.90
23160;DHT22;11748;50.844;4.396;2023-04-15T03:11:22;11.80;99.90
23160;DHT22;11748;50.844;4.396;2023-04-15T03:13:48;11.80;99.90
23160;DHT22;11748;50.844;4.396;2023-04-15T03:16:13;11.80;99.90
23160;DHT22;11748;50.844;4.396;2023-04-15T03:18:39;11.80;99.90
23160;DHT22;11748;50.844;4.396;2023-04-15T03:21:05;11.70;99.90
23160;DHT22;11748;50.844;4.396;2023-04-15T03:23:31;11.70;99.90
23160;DHT22;11748;50.844;4.396;2023-04-15T03:25:59;11.80;99.90
23160;DHT22;11748;50.844;4.396;2023-04-15T03:28:26;11.80;99.90
23160;DHT22;11748;50.844;4.396;2023-04-15T03:30:51;11.70;99.90
23160;DHT22;11748;50.844;4.396;2023-04-15T03:33:17;11.50;99.90
23160;DHT22;11748;50.844;4.396;2023-04-15T03:35:43;11.40;99.90
23160;DHT22;11748;50.844;4.396;2023-04-15T03:38:08;11.50;99.90
23160;DHT22;11748;50.844;4.396;2023-04-15T03:40:34;11.20;99.90
23160;DHT22;11748;50.844;4.396;2023-04-15T03:43:00;11.10;99.90
23160;DHT22;11748;50.844;4.396;2023-04-15T03:45:26;11.00;99.90
23160;DHT22;11748;50.844;4.396;2023-04-15T03:47:52;11.00;99.90
23160;DHT22;11748;50.844;4.396;2023-04-15T03:50:17;11.10;99.90
23160;DHT22;11748;50.844;4.396;2023-04-15T03:52:43;11.10;99.90
23160;DHT22;11748;50.844;4.396;2023-04-15T03:55:10;11.00;99.90
23160;DHT22;11748;50.844;4.396;2023-04-15T03:57:35;11.00;99.90
23160;DHT22;11748;50.844;4.396;2023-04-15T04:00:05;11.10;99.90
23160;DHT22;11748;50.844;4.396;2023-04-15T04:02:31;11.10;99.90
23160;DHT22;11748;50.844;4.396;2023-04-15T04:04:57;11.00;99.90
23160;DHT22;11748;50.844;4.396;2023-04-15T04:07:23;10.90;99.90
23160;DHT22;11748;50.844;4.396;2023-04-15T04:09:49;10.90;99.90
23160;DHT22;11748;50.844;4.396;2023-04-15T04:12:15;10.90;99.90
23160;DHT22;11748;50.844;4.396;2023-04-15T04:14:41;10.80;99.90
23160;DHT22;11748;50.844;4.396;2023-04-15T04:17:07;10.80;99.90
23160;DHT22;11748;50.844;4.396;2023-04-15T04:19:33;10.80;99.90
23160;DHT22;11748;50.844;4.396;2023-04-15T04:21:59;10.60;99.90
23160;DHT22;11748;50.844;4.396;2023-04-15T04:24:25;10.50;99.90
23160;DHT22;11748;50.844;4.396;2023-04-15T04:26:51;10.50;99.90
23160;DHT22;11748;50.844;4.396;2023-04-15T04:29:16;10.60;99.90
23160;DHT22;11748;50.844;4.396;2023-04-15T04:31:42;10.90;99.90
23160;DHT22;11748;50.844;4.396;2023-04-15T04:34:08;10.70;99.90
23160;DHT22;11748;50.844;4.396;2023-04-15T04:36:33;10.60;99.90
23160;DHT22;11748;50.844;4.396;2023-04-15T04:38:59;10.70;99.90
23160;DHT22;11748;50.844;4.396;2023-04-15T04:41:26;10.80;99.90
23160;DHT22;11748;50.844;4.396;2023-04-15T04:43:51;10.90;99.90
23160;DHT22;11748;50.844;4.396;2023-04-15T04:46:17;10.70;99.90
23160;DHT22;11748;50.844;4.396;2023-04-15T04:48:43;10.60;99.90
23160;DHT22;11748;50.844;4.396;2023-04-15T04:51:09;10.70;99.90
23160;DHT22;11748;50.844;4.396;2023-04-15T04:53:35;10.60;99.90
23160;DHT22;11748;50.844;4.396;2023-04-15T04:56:02;10.50;99.90
23160;DHT22;11748;50.844;4.396;2023-04-15T04:58:28;10.40;99.90
23160;DHT22;11748;50.844;4.396;2023-04-15T05:00:53;10.40;99.90
23160;DHT22;11748;50.844;4.396;2023-04-15T05:03:20;10.40;99.90
23160;DHT22;11748;50.844;4.396;2023-04-15T05:05:46;10.30;99.90
23160;DHT22;11748;50.844;4.396;2023-04-15T05:08:14;10.30;99.90
23160;DHT22;11748;50.844;4.396;2023-04-15T05:10:39;10.40;99.90
23160;DHT22;11748;50.844;4.396;2023-04-15T05:13:05;10.40;99.90
23160;DHT22;11748;50.844;4.396;2023-04-15T05:15:31;10.50;99.90
23160;DHT22;11748;50.844;4.396;2023-04-15T05:17:57;10.50;99.90
23160;DHT22;11748;50.844;4.396;2023-04-15T05:20:23;10.70;99.90
23160;DHT22;11748;50.844;4.396;2023-04-15T05:22:49;10.80;99.90
23160;DHT22;11748;50.844;4.396;2023-04-15T05:25:14;10.80;99.90
23160;DHT22;11748;50.844;4.396;2023-04-15T05:27:40;10.80;99.90
23160;DHT22;11748;50.844;4.396;2023-04-15T05:30:07;10.70;99.90
23160;DHT22;11748;50.844;4.396;2023-04-15T05:32:33;10.70;99.90
23160;DHT22;11748;50.844;4.396;2023-04-15T05:35:00;10.70;99.90
23160;DHT22;11748;50.844;4.396;2023-04-15T05:37:25;10.90;99.90
23160;DHT22;11748;50.844;4.396;2023-04-15T05:39:51;11.10;99.90
23160;DHT22;11748;50.844;4.396;2023-04-15T05:42:17;10.90;99.90
23160;DHT22;11748;50.844;4.396;2023-04-15T05:44:42;10.90;99.90
23160;DHT22;11748;50.844;4.396;2023-04-15T05:47:08;10.90;99.90
23160;DHT22;11748;50.844;4.396;2023-04-15T05:49:35;11.10;99.90
23160;DHT22;11748;50.844;4.396;2023-04-15T05:52:01;11.10;99.90
23160;DHT22;11748;50.844;4.396;2023-04-15T05:54:27;11.10;99.90
23160;DHT22;11748;50.844;4.396;2023-04-15T05:56:53;11.10;99.90
23160;DHT22;11748;50.844;4.396;2023-04-15T05:59:19;11.00;99.90
23160;DHT22;11748;50.844;4.396;2023-04-15T06:01:45;11.10;99.90
23160;DHT22;11748;50.844;4.396;2023-04-15T06:04:11;11.20;99.90
23160;DHT22;11748;50.844;4.396;2023-04-15T06:06:37;11.10;99.90
23160;DHT22;11748;50.844;4.396;2023-04-15T06:09:03;11.10;99.90
23160;DHT22;11748;50.844;4.396;2023-04-15T06:11:29;11.00;99.90
23160;DHT22;11748;50.844;4.396;2023-04-15T06:13:55;11.00;99.90
23160;DHT22;11748;50.844;4.396;2023-04-15T06:16:21;10.80;99.90
23160;DHT22;11748;50.844;4.396;2023-04-15T06:18:47;11.00;99.90
23160;DHT22;11748;50.844;4.396;2023-04-15T06:21:13;11.20;99.90
23160;DHT22;11748;50.844;4.396;2023-04-15T06:23:40;11.10;99.90
23160;DHT22;11748;50.844;4.396;2023-04-15T06:26:06;11.00;99.90
23160;DHT22;11748;50.844;4.396;2023-04-15T06:28:32;11.10;99.90
23160;DHT22;11748;50.844;4.396;2023-04-15T06:30:58;11.20;99.90
23160;DHT22;11748;50.844;4.396;2023-04-15T06:33:23;11.40;99.90
23160;DHT22;11748;50.844;4.396;2023-04-15T06:35:49;11.50;99.90
23160;DHT22;11748;50.844;4.396;2023-04-15T06:38:15;11.90;99.90
23160;DHT22;11748;50.844;4.396;2023-04-15T06:40:41;12.10;99.90
23160;DHT22;11748;50.844;4.396;2023-04-15T06:43:07;12.10;99.90
23160;DHT22;11748;50.844;4.396;2023-04-15T06:45:33;12.10;99.90
23160;DHT22;11748;50.844;4.396;2023-04-15T06:47:59;12.00;99.90
23160;DHT22;11748;50.844;4.396;2023-04-15T06:50:25;12.10;99.90
23160;DHT22;11748;50.844;4.396;2023-04-15T06:52:52;12.20;99.90
23160;DHT22;11748;50.844;4.396;2023-04-15T06:55:18;12.50;99.90
23160;DHT22;11748;50.844;4.396;2023-04-15T06:57:44;12.50;99.90
23160;DHT22;11748;50.844;4.396;2023-04-15T07:00:10;12.50;99.90
23160;DHT22;11748;50.844;4.396;2023-04-15T07:02:36;12.70;99.90
23160;DHT22;11748;50.844;4.396;2023-04-15T07:05:02;12.90;99.90
23160;DHT22;11748;50.844;4.396;2023-04-15T07:07:29;12.90;99.90
23160;DHT22;11748;50.844;4.396;2023-04-15T07:09:54;13.00;99.90
23160;DHT22;11748;50.844;4.396;2023-04-15T07:12:20;13.00;99.90
23160;DHT22;11748;50.844;4.396;2023-04-15T07:14:46;13.00;99.90
23160;DHT22;11748;50.844;4.396;2023-04-15T07:17:12;12.70;99.90
23160;DHT22;11748;50.844;4.396;2023-04-15T07:19:37;12.60;99.90
23160;DHT22;11748;50.844;4.396;2023-04-15T07:22:03;12.50;99.90
23160;DHT22;11748;50.844;4.396;2023-04-15T07:24:29;12.50;99.90
23160;DHT22;11748;50.844;4.396;2023-04-15T07:26:55;12.30;99.90
23160;DHT22;11748;50.844;4.396;2023-04-15T07:29:24;12.40;99.90
23160;DHT22;11748;50.844;4.396;2023-04-15T07:31:50;12.20;99.90
23160;DHT22;11748;50.844;4.396;2023-04-15T07:34:17;12.00;99.90
23160;DHT22;11748;50.844;4.396;2023-04-15T07:36:43;11.90;99.90
23160;DHT22;11748;50.844;4.396;2023-04-15T07:39:09;11.80;99.90
23160;DHT22;11748;50.844;4.396;2023-04-15T07:41:34;11.80;99.90
23160;DHT22;11748;50.844;4.396;2023-04-15T07:44:00;11.80;99.90
23160;DHT22;11748;50.844;4.396;2023-04-15T07:46:26;11.80;99.90
23160;DHT22;11748;50.844;4.396;2023-04-15T07:48:52;11.80;99.90
23160;DHT22;11748;50.844;4.396;2023-04-15T07:51:19;11.60;99.90
23160;DHT22;11748;50.844;4.396;2023-04-15T07:53:46;12.00;99.90
23160;DHT22;11748;50.844;4.396;2023-04-15T07:56:12;12.00;99.90
23160;DHT22;11748;50.844;4.396;2023-04-15T07:58:38;11.80;99.90
23160;DHT22;11748;50.844;4.396;2023-04-15T08:01:04;11.60;99.90
23160;DHT22;11748;50.844;4.396;2023-04-15T08:03:30;11.60;99.90
23160;DHT22;11748;50.844;4.396;2023-04-15T08:05:56;11.50;99.90
23160;DHT22;11748;50.844;4.396;2023-04-15T08:08:22;11.50;99.90
23160;DHT22;11748;50.844;4.396;2023-04-15T08:10:48;11.70;99.90
23160;DHT22;11748;50.844;4.396;2023-04-15T08:13:14;11.60;99.90
23160;DHT22;11748;50.844;4.396;2023-04-15T08:15:40;11.60;99.90
23160;DHT22;11748;50.844;4.396;2023-04-15T08:18:06;11.60;99.90
23160;DHT22;11748;50.844;4.396;2023-04-15T08:20:32;11.90;99.90
23160;DHT22;11748;50.844;4.396;2023-04-15T08:22:58;12.10;99.90
23160;DHT22;11748;50.844;4.396;2023-04-15T08:25:24;12.20;99.90
23160;DHT22;11748;50.844;4.396;2023-04-15T08:27:49;12.40;99.90
23160;DHT22;11748;50.844;4.396;2023-04-15T08:30:15;12.70;99.90
23160;DHT22;11748;50.844;4.396;2023-04-15T08:32:44;12.70;99.90
23160;DHT22;11748;50.844;4.396;2023-04-15T08:35:11;12.90;99.90
23160;DHT22;11748;50.844;4.396;2023-04-15T08:37:37;13.10;99.90
23160;DHT22;11748;50.844;4.396;2023-04-15T08:40:03;13.30;99.90
23160;DHT22;11748;50.844;4.396;2023-04-15T08:42:36;13.60;99.90
23160;DHT22;11748;50.844;4.396;2023-04-15T08:45:04;13.40;99.90
23160;DHT22;11748;50.844;4.396;2023-04-15T08:47:30;13.00;99.90
23160;DHT22;11748;50.844;4.396;2023-04-15T08:49:57;13.10;99.90
23160;DHT22;11748;50.844;4.396;2023-04-15T08:52:25;13.50;99.90
23160;DHT22;11748;50.844;4.396;2023-04-15T08:54:54;13.90;99.90
23160;DHT22;11748;50.844;4.396;2023-04-15T08:57:29;13.60;99.90
23160;DHT22;11748;50.844;4.396;2023-04-15T08:59:56;13.70;99.90
23160;DHT22;11748;50.844;4.396;2023-04-15T09:02:23;13.70;99.90
23160;DHT22;11748;50.844;4.396;2023-04-15T09:04:49;14.10;99.90
23160;DHT22;11748;50.844;4.396;2023-04-15T09:07:14;13.80;99.90
23160;DHT22;11748;50.844;4.396;2023-04-15T09:09:41;13.90;99.90
23160;DHT22;11748;50.844;4.396;2023-04-15T09:12:07;14.20;99.90
23160;DHT22;11748;50.844;4.396;2023-04-15T09:14:33;14.00;99.90
23160;DHT22;11748;50.844;4.396;2023-04-15T09:17:01;14.00;99.90
23160;DHT22;11748;50.844;4.396;2023-04-15T09:19:27;14.00;99.90
23160;DHT22;11748;50.844;4.396;2023-04-15T09:21:54;14.10;99.90
23160;DHT22;11748;50.844;4.396;2023-04-15T09:24:22;14.40;99.90
23160;DHT22;11748;50.844;4.396;2023-04-15T09:26:52;14.70;99.90
23160;DHT22;11748;50.844;4.396;2023-04-15T09:29:19;14.60;99.90
23160;DHT22;11748;50.844;4.396;2023-04-15T09:31:48;14.70;99.90
23160;DHT22;11748;50.844;4.396;2023-04-15T09:34:14;14.90;99.90
23160;DHT22;11748;50.844;4.396;2023-04-15T09:36:56;15.00;99.90
23160;DHT22;11748;50.844;4.396;2023-04-15T09:39:22;14.90;99.90
23160;DHT22;11748;50.844;4.396;2023-04-15T09:42:07;14.80;99.90
23160;DHT22;11748;50.844;4.396;2023-04-15T09:44:34;15.00;99.90
23160;DHT22;11748;50.844;4.396;2023-04-15T09:47:00;15.20;99.90
23160;DHT22;11748;50.844;4.396;2023-04-15T09:49:26;15.40;99.90
23160;DHT22;11748;50.844;4.396;2023-04-15T09:52:00;15.40;99.90
23160;DHT22;11748;50.844;4.396;2023-04-15T09:54:33;15.50;99.90
23160;DHT22;11748;50.844;4.396;2023-04-15T09:57:07;15.60;99.90
23160;DHT22;11748;50.844;4.396;2023-04-15T09:59:34;15.50;99.90
23160;DHT22;11748;50.844;4.396;2023-04-15T10:02:03;15.70;99.90
23160;DHT22;11748;50.844;4.396;2023-04-15T10:04:34;15.60;99.90
23160;DHT22;11748;50.844;4.396;2023-04-15T10:07:02;15.70;99.90
23160;DHT22;11748;50.844;4.396;2023-04-15T10:09:29;15.60;99.90
23160;DHT22;11748;50.844;4.396;2023-04-15T10:11:55;15.60;99.90
23160;DHT22;11748;50.844;4.396;2023-04-15T10:14:21;15.70;99.90
23160;DHT22;11748;50.844;4.396;2023-04-15T10:16:48;15.70;99.90
23160;DHT22;11748;50.844;4.396;2023-04-15T10:19:14;15.50;99.90
23160;DHT22;11748;50.844;4.396;2023-04-15T10:21:43;15.50;99.90
23160;DHT22;11748;50.844;4.396;2023-04-15T10:24:10;15.70;99.90
23160;DHT22;11748;50.844;4.396;2023-04-15T10:26:37;15.80;99.90
23160;DHT22;11748;50.844;4.396;2023-04-15T10:29:02;15.90;99.90
23160;DHT22;11748;50.844;4.396;2023-04-15T10:31:29;15.90;99.90
23160;DHT22;11748;50.844;4.396;2023-04-15T10:33:56;16.00;99.90
23160;DHT22;11748;50.844;4.396;2023-04-15T10:36:22;16.10;99.90
23160;DHT22;11748;50.844;4.396;2023-04-15T10:38:48;16.20;99.90
23160;DHT22;11748;50.844;4.396;2023-04-15T10:41:27;16.30;99.90
23160;DHT22;11748;50.844;4.396;2023-04-15T10:46:42;16.40;99.90
23160;DHT22;11748;50.844;4.396;2023-04-15T10:49:10;16.50;99.90
23160;DHT22;11748;50.844;4.396;2023-04-15T10:51:38;16.50;99.90
23160;DHT22;11748;50.844;4.396;2023-04-15T10:54:12;16.50;99.90
23160;DHT22;11748;50.844;4.396;2023-04-15T10:56:41;16.60;98.70
23160;DHT22;11748;50.844;4.396;2023-04-15T10:59:08;16.30;98.40
23160;DHT22;11748;50.844;4.396;2023-04-15T11:02:06;16.30;98.10
23160;DHT22;11748;50.844;4.396;2023-04-15T11:04:51;16.50;97.90
23160;DHT22;11748;50.844;4.396;2023-04-15T11:07:36;16.60;97.80
23160;DHT22;11748;50.844;4.396;2023-04-15T11:10:49;16.70;96.50
23160;DHT22;11748;50.844;4.396;2023-04-15T11:12:51;16.70;96.40
23160;DHT22;11748;50.844;4.396;2023-04-15T11:15:45;16.90;93.50
23160;DHT22;11748;50.844;4.396;2023-04-15T11:18:14;16.90;92.50
23160;DHT22;11748;50.844;4.396;2023-04-15T11:20:47;16.80;93.50
23160;DHT22;11748;50.844;4.396;2023-04-15T11:23:40;16.80;94.10
23160;DHT22;11748;50.844;4.396;2023-04-15T11:26:09;16.50;94.40
23160;DHT22;11748;50.844;4.396;2023-04-15T11:28:41;16.40;93.70
23160;DHT22;11748;50.844;4.396;2023-04-15T11:31:11;16.30;94.30
23160;DHT22;11748;50.844;4.396;2023-04-15T11:36:19;16.80;93.70
23160;DHT22;11748;50.844;4.396;2023-04-15T11:38:46;16.80;93.50
23160;DHT22;11748;50.844;4.396;2023-04-15T11:41:13;16.60;93.50
23160;DHT22;11748;50.844;4.396;2023-04-15T11:43:39;16.60;93.50
23160;DHT22;11748;50.844;4.396;2023-04-15T11:46:04;16.70;93.30
23160;DHT22;11748;50.844;4.396;2023-04-15T11:48:32;16.80;92.90
23160;DHT22;11748;50.844;4.396;2023-04-15T11:51:05;16.50;93.00
23160;DHT22;11748;50.844;4.396;2023-04-15T11:54:01;16.60;87.60
23160;DHT22;11748;50.844;4.396;2023-04-15T11:56:26;16.80;83.80
23160;DHT22;11748;50.844;4.396;2023-04-15T11:58:54;16.80;84.90
23160;DHT22;11748;50.844;4.396;2023-04-15T12:01:30;16.60;86.40
23160;DHT22;11748;50.844;4.396;2023-04-15T12:03:56;16.70;88.60
23160;DHT22;11748;50.844;4.396;2023-04-15T12:06:24;17.00;89.00
23160;DHT22;11748;50.844;4.396;2023-04-15T12:09:16;17.10;89.50
23160;DHT22;11748;50.844;4.396;2023-04-15T12:14:31;17.30;90.40
23160;DHT22;11748;50.844;4.396;2023-04-15T12:19:25;17.20;90.70
23160;DHT22;11748;50.844;4.396;2023-04-15T12:22:01;17.00;90.90
23160;DHT22;11748;50.844;4.396;2023-04-15T12:24:27;16.90;87.30
23160;DHT22;11748;50.844;4.396;2023-04-15T12:26:56;16.60;89.70
23160;DHT22;11748;50.844;4.396;2023-04-15T12:29:27;16.50;90.60
23160;DHT22;11748;50.844;4.396;2023-04-15T12:37:04;17.40;89.30
23160;DHT22;11748;50.844;4.396;2023-04-15T12:39:33;17.10;86.00
23160;DHT22;11748;50.844;4.396;2023-04-15T12:41:59;16.70;86.50
23160;DHT22;11748;50.844;4.396;2023-04-15T12:44:26;16.90;85.80
23160;DHT22;11748;50.844;4.396;2023-04-15T12:46:53;17.00;83.60
23160;DHT22;11748;50.844;4.396;2023-04-15T12:49:20;17.00;83.60
23160;DHT22;11748;50.844;4.396;2023-04-15T12:51:48;17.10;84.50
23160;DHT22;11748;50.844;4.396;2023-04-15T12:54:15;16.90;84.70
23160;DHT22;11748;50.844;4.396;2023-04-15T12:56:41;16.80;81.80
23160;DHT22;11748;50.844;4.396;2023-04-15T12:59:07;16.70;82.80
23160;DHT22;11748;50.844;4.396;2023-04-15T13:01:33;16.90;84.00
23160;DHT22;11748;50.844;4.396;2023-04-15T13:03:59;17.20;83.20
23160;DHT22;11748;50.844;4.396;2023-04-15T13:06:24;17.20;84.10
23160;DHT22;11748;50.844;4.396;2023-04-15T13:08:50;17.20;84.80
23160;DHT22;11748;50.844;4.396;2023-04-15T13:11:19;17.40;86.50
23160;DHT22;11748;50.844;4.396;2023-04-15T13:13:44;17.30;86.40
23160;DHT22;11748;50.844;4.396;2023-04-15T13:16:10;17.20;85.10
23160;DHT22;11748;50.844;4.396;2023-04-15T13:18:36;17.20;84.90
23160;DHT22;11748;50.844;4.396;2023-04-15T13:21:03;17.20;85.50
23160;DHT22;11748;50.844;4.396;2023-04-15T13:23:32;17.20;86.80
23160;DHT22;11748;50.844;4.396;2023-04-15T13:25:58;17.00;87.90
23160;DHT22;11748;50.844;4.396;2023-04-15T13:28:24;17.10;88.00
23160;DHT22;11748;50.844;4.396;2023-04-15T13:30:50;16.80;86.80
23160;DHT22;11748;50.844;4.396;2023-04-15T13:33:16;16.90;88.10
23160;DHT22;11748;50.844;4.396;2023-04-15T13:35:42;16.90;86.90
23160;DHT22;11748;50.844;4.396;2023-04-15T13:38:08;17.00;88.70
23160;DHT22;11748;50.844;4.396;2023-04-15T13:40:35;17.20;88.10
23160;DHT22;11748;50.844;4.396;2023-04-15T13:43:00;17.10;87.30
23160;DHT22;11748;50.844;4.396;2023-04-15T13:45:27;17.40;87.70
23160;DHT22;11748;50.844;4.396;2023-04-15T13:47:54;17.20;87.10
23160;DHT22;11748;50.844;4.396;2023-04-15T13:50:22;17.10;87.90
23160;DHT22;11748;50.844;4.396;2023-04-15T13:52:47;17.00;89.00
23160;DHT22;11748;50.844;4.396;2023-04-15T13:55:13;17.10;89.60
23160;DHT22;11748;50.844;4.396;2023-04-15T13:57:39;17.10;88.40
23160;DHT22;11748;50.844;4.396;2023-04-15T14:00:05;17.20;87.00
23160;DHT22;11748;50.844;4.396;2023-04-15T14:02:32;17.20;87.50
23160;DHT22;11748;50.844;4.396;2023-04-15T14:04:58;17.10;86.10
23160;DHT22;11748;50.844;4.396;2023-04-15T14:07:23;17.00;85.00
23160;DHT22;11748;50.844;4.396;2023-04-15T14:09:49;16.90;86.30
23160;DHT22;11748;50.844;4.396;2023-04-15T14:12:15;16.90;87.60
23160;DHT22;11748;50.844;4.396;2023-04-15T14:14:41;17.00;87.90
23160;DHT22;11748;50.844;4.396;2023-04-15T14:17:06;16.90;89.00
23160;DHT22;11748;50.844;4.396;2023-04-15T14:19:33;17.00;90.00
23160;DHT22;11748;50.844;4.396;2023-04-15T14:21:59;17.20;90.10
23160;DHT22;11748;50.844;4.396;2023-04-15T14:24:25;17.20;90.30
23160;DHT22;11748;50.844;4.396;2023-04-15T14:26:52;17.50;90.30
23160;DHT22;11748;50.844;4.396;2023-04-15T14:29:17;17.20;90.50
23160;DHT22;11748;50.844;4.396;2023-04-15T14:31:43;17.00;90.90
23160;DHT22;11748;50.844;4.396;2023-04-15T14:34:10;16.90;90.70
23160;DHT22;11748;50.844;4.396;2023-04-15T14:36:36;16.50;89.30
23160;DHT22;11748;50.844;4.396;2023-04-15T14:39:02;16.20;89.70
23160;DHT22;11748;50.844;4.396;2023-04-15T14:41:29;16.10;90.10
23160;DHT22;11748;50.844;4.396;2023-04-15T14:43:54;16.10;90.30
23160;DHT22;11748;50.844;4.396;2023-04-15T14:46:21;16.40;90.30
23160;DHT22;11748;50.844;4.396;2023-04-15T14:48:47;16.40;90.20
23160;DHT22;11748;50.844;4.396;2023-04-15T14:51:13;16.30;90.50
23160;DHT22;11748;50.844;4.396;2023-04-15T14:53:40;16.70;90.20
23160;DHT22;11748;50.844;4.396;2023-04-15T14:56:06;17.00;90.10
23160;DHT22;11748;50.844;4.396;2023-04-15T14:58:32;17.10;90.30
23160;DHT22;11748;50.844;4.396;2023-04-15T15:00:58;17.20;90.50
23160;DHT22;11748;50.844;4.396;2023-04-15T15:03:24;17.40;90.70
23160;DHT22;11748;50.844;4.396;2023-04-15T15:05:50;17.70;90.70
23160;DHT22;11748;50.844;4.396;2023-04-15T15:08:16;17.60;89.70
23160;DHT22;11748;50.844;4.396;2023-04-15T15:10:41;17.50;88.00
23160;DHT22;11748;50.844;4.396;2023-04-15T15:13:09;17.20;90.30
23160;DHT22;11748;50.844;4.396;2023-04-15T15:15:36;16.80;91.10
23160;DHT22;11748;50.844;4.396;2023-04-15T15:18:02;16.80;91.40
23160;DHT22;11748;50.844;4.396;2023-04-15T15:20:29;16.80;90.90
23160;DHT22;11748;50.844;4.396;2023-04-15T15:22:55;17.10;90.90
23160;DHT22;11748;50.844;4.396;2023-04-15T15:25:21;17.10;91.40
23160;DHT22;11748;50.844;4.396;2023-04-15T15:27:47;16.80;91.70
23160;DHT22;11748;50.844;4.396;2023-04-15T15:30:13;16.60;93.10
23160;DHT22;11748;50.844;4.396;2023-04-15T15:32:39;16.50;93.10
23160;DHT22;11748;50.844;4.396;2023-04-15T15:35:06;16.30;93.20
23160;DHT22;11748;50.844;4.396;2023-04-15T15:37:32;16.40;93.30
23160;DHT22;11748;50.844;4.396;2023-04-15T15:39:59;16.20;93.70
23160;DHT22;11748;50.844;4.396;2023-04-15T15:42:25;15.90;94.00
23160;DHT22;11748;50.844;4.396;2023-04-15T15:44:51;15.90;94.50